Cuivre River (Missouri), Troy (05514500)

StateMissouriLatestPoor (36 cfs)
RiverCuivre RiverRatingObservedEstimated
Updated2022-09-25 21:00 (17 minutes ago)Flood - The river is flooding. Obstacles can be treacherous or deadly. The river should be avoided at this stage for casual trips and definitely for the inexperienced. Trips should be attempted only with protective gear and equipment.Flood(none)2631
Discharge36 cfs (median: 15 cfs)High - The river is high and potentially dangerous, especially for the young and / or inexperienced. Normal stream obstacles are sometimes difficult to navigate. Extended distances can be attempted, but canoe travel may not be advisable.High(none)705
Height(none)Good - Conditions are ideal for a canoe or kayak. Boats typically will drag on fewer than one-quarter of riffles, if at all, and portages are unnecessary or rare. Normal float lengths can be attempted without a problem.Good(none)212
TrendSteady (falling over 24 hours)Low - River is low but can still be floated. Some riffles are okay but most come with significant dragging and might need a portage. Float lengths should be reduced to accommodate low flow, dragging, and portages.Low(none)131
USGSExternal icon USGS Site (External icon Duck Duck Go Maps)Poor - River is too low to float comfortably. Most or all riffles will drag or must be portaged and some obstacles (such as slick shelf rock) cause undue problems. Avoid the river at this stage for casual paddling trips.Poor(none)33

Trending Data

Plot Image

Trips for Cuivre River (Missouri), Troy (05514500)

DateStartEndDistanceConditionDischargeHeightFishingDetails

A total of 0 rows are displayed.

Condition Descriptions

Fishing Conditions

Fish Species

Notes

Classic Trip List

The classic River Trips application is still available for use. It is updated with the new system using a data retrofit. It is no longer maintained. The original River Trips application is no longer updated (as of 1 Dec 2016) but can be checked for errors or for the condition of the data before it was converted to the new system.

Gauge Data Table

ObservationHeightDischargeMaximum
Discharge
Minimum
Discharge
Mean
Discharge
P05P10P20P25P50
(Median)
P75P80P90P95
2022-09-25 21:00 36 18700 (1970) 0 (1964) 720 2 3 4 6 15 54 84 642 7390
2022-09-25 20:30 5.39 36 18700 (1970) 0 (1964) 720 2 3 4 6 15 54 84 642 7390
2022-09-25 20:00 5.39 36 18700 (1970) 0 (1964) 720 2 3 4 6 15 54 84 642 7390
2022-09-25 19:30 5.40 37 18700 (1970) 0 (1964) 720 2 3 4 6 15 54 84 642 7390
2022-09-25 19:00 5.40 37 18700 (1970) 0 (1964) 720 2 3 4 6 15 54 84 642 7390
2022-09-25 18:30 5.40 37 18700 (1970) 0 (1964) 720 2 3 4 6 15 54 84 642 7390
2022-09-25 18:00 5.39 36 18700 (1970) 0 (1964) 720 2 3 4 6 15 54 84 642 7390
2022-09-25 17:30 5.36 33 18700 (1970) 0 (1964) 720 2 3 4 6 15 54 84 642 7390
2022-09-25 17:00 5.33 30 18700 (1970) 0 (1964) 720 2 3 4 6 15 54 84 642 7390
2022-09-25 16:30 5.37 34 18700 (1970) 0 (1964) 720 2 3 4 6 15 54 84 642 7390
2022-09-25 16:00 5.35 32 18700 (1970) 0 (1964) 720 2 3 4 6 15 54 84 642 7390
2022-09-25 15:30 5.36 33 18700 (1970) 0 (1964) 720 2 3 4 6 15 54 84 642 7390
2022-09-25 15:00 5.34 31 18700 (1970) 0 (1964) 720 2 3 4 6 15 54 84 642 7390
2022-09-25 14:30 5.35 32 18700 (1970) 0 (1964) 720 2 3 4 6 15 54 84 642 7390
2022-09-25 14:00 5.35 32 18700 (1970) 0 (1964) 720 2 3 4 6 15 54 84 642 7390
2022-09-25 13:30 5.38 35 18700 (1970) 0 (1964) 720 2 3 4 6 15 54 84 642 7390
2022-09-25 13:00 5.39 36 18700 (1970) 0 (1964) 720 2 3 4 6 15 54 84 642 7390
2022-09-25 12:30 5.35 32 18700 (1970) 0 (1964) 720 2 3 4 6 15 54 84 642 7390
2022-09-25 12:00 5.37 34 18700 (1970) 0 (1964) 720 2 3 4 6 15 54 84 642 7390
2022-09-25 11:30 5.38 35 18700 (1970) 0 (1964) 720 2 3 4 6 15 54 84 642 7390
2022-09-25 11:00 5.38 35 18700 (1970) 0 (1964) 720 2 3 4 6 15 54 84 642 7390
2022-09-25 10:30 5.38 35 18700 (1970) 0 (1964) 720 2 3 4 6 15 54 84 642 7390
2022-09-25 10:00 5.37 34 18700 (1970) 0 (1964) 720 2 3 4 6 15 54 84 642 7390
2022-09-25 09:30 5.40 37 18700 (1970) 0 (1964) 720 2 3 4 6 15 54 84 642 7390
2022-09-25 09:00 5.42 39 18700 (1970) 0 (1964) 720 2 3 4 6 15 54 84 642 7390
2022-09-25 08:30 5.41 38 18700 (1970) 0 (1964) 720 2 3 4 6 15 54 84 642 7390
2022-09-25 08:00 5.42 39 18700 (1970) 0 (1964) 720 2 3 4 6 15 54 84 642 7390
2022-09-25 07:30 5.40 37 18700 (1970) 0 (1964) 720 2 3 4 6 15 54 84 642 7390
2022-09-25 07:00 5.42 39 18700 (1970) 0 (1964) 720 2 3 4 6 15 54 84 642 7390
2022-09-25 06:30 5.41 38 18700 (1970) 0 (1964) 720 2 3 4 6 15 54 84 642 7390
2022-09-25 06:00 5.42 39 18700 (1970) 0 (1964) 720 2 3 4 6 15 54 84 642 7390
2022-09-25 05:30 5.40 37 18700 (1970) 0 (1964) 720 2 3 4 6 15 54 84 642 7390
2022-09-25 05:00 5.41 38 18700 (1970) 0 (1964) 720 2 3 4 6 15 54 84 642 7390
2022-09-25 04:30 5.41 38 18700 (1970) 0 (1964) 720 2 3 4 6 15 54 84 642 7390
2022-09-25 04:00 5.41 38 18700 (1970) 0 (1964) 720 2 3 4 6 15 54 84 642 7390
2022-09-25 03:30 5.41 38 18700 (1970) 0 (1964) 720 2 3 4 6 15 54 84 642 7390
2022-09-25 03:00 5.41 38 18700 (1970) 0 (1964) 720 2 3 4 6 15 54 84 642 7390
2022-09-25 02:30 5.41 38 18700 (1970) 0 (1964) 720 2 3 4 6 15 54 84 642 7390
2022-09-25 02:00 5.41 38 18700 (1970) 0 (1964) 720 2 3 4 6 15 54 84 642 7390
2022-09-25 01:30 5.39 36 18700 (1970) 0 (1964) 720 2 3 4 6 15 54 84 642 7390
2022-09-25 01:00 5.41 38 18700 (1970) 0 (1964) 720 2 3 4 6 15 54 84 642 7390
2022-09-25 00:30 5.41 38 18700 (1970) 0 (1964) 720 2 3 4 6 15 54 84 642 7390
2022-09-25 00:00 5.40 37 18700 (1970) 0 (1964) 720 2 3 4 6 15 54 84 642 7390
2022-09-24 23:30 37 51500 (1993) 0 (1964) 1130 2 3 4 5 19 54 79 427 2440
2022-09-24 23:00 5.40 37 51500 (1993) 0 (1964) 1130 2 3 4 5 19 54 79 427 2440
2022-09-24 22:30 5.40 37 51500 (1993) 0 (1964) 1130 2 3 4 5 19 54 79 427 2440
2022-09-24 22:00 5.40 37 51500 (1993) 0 (1964) 1130 2 3 4 5 19 54 79 427 2440
2022-09-24 21:30 5.40 37 51500 (1993) 0 (1964) 1130 2 3 4 5 19 54 79 427 2440
2022-09-24 21:00 5.40 37 51500 (1993) 0 (1964) 1130 2 3 4 5 19 54 79 427 2440
2022-09-24 20:30 5.40 37 51500 (1993) 0 (1964) 1130 2 3 4 5 19 54 79 427 2440
2022-09-24 20:00 5.40 37 51500 (1993) 0 (1964) 1130 2 3 4 5 19 54 79 427 2440
2022-09-24 19:30 5.40 37 51500 (1993) 0 (1964) 1130 2 3 4 5 19 54 79 427 2440
2022-09-24 19:00 5.40 37 51500 (1993) 0 (1964) 1130 2 3 4 5 19 54 79 427 2440
2022-09-24 18:30 5.40 37 51500 (1993) 0 (1964) 1130 2 3 4 5 19 54 79 427 2440
2022-09-24 18:00 5.40 37 51500 (1993) 0 (1964) 1130 2 3 4 5 19 54 79 427 2440
2022-09-24 17:30 5.40 37 51500 (1993) 0 (1964) 1130 2 3 4 5 19 54 79 427 2440
2022-09-24 17:00 5.34 31 51500 (1993) 0 (1964) 1130 2 3 4 5 19 54 79 427 2440
2022-09-24 16:30 5.37 34 51500 (1993) 0 (1964) 1130 2 3 4 5 19 54 79 427 2440
2022-09-24 16:00 5.36 33 51500 (1993) 0 (1964) 1130 2 3 4 5 19 54 79 427 2440
2022-09-24 15:30 5.34 31 51500 (1993) 0 (1964) 1130 2 3 4 5 19 54 79 427 2440
2022-09-24 15:00 5.35 32 51500 (1993) 0 (1964) 1130 2 3 4 5 19 54 79 427 2440
2022-09-24 14:30 5.35 32 51500 (1993) 0 (1964) 1130 2 3 4 5 19 54 79 427 2440
2022-09-24 14:00 5.36 33 51500 (1993) 0 (1964) 1130 2 3 4 5 19 54 79 427 2440
2022-09-24 13:30 5.40 37 51500 (1993) 0 (1964) 1130 2 3 4 5 19 54 79 427 2440
2022-09-24 13:00 5.36 33 51500 (1993) 0 (1964) 1130 2 3 4 5 19 54 79 427 2440
2022-09-24 12:30 5.37 34 51500 (1993) 0 (1964) 1130 2 3 4 5 19 54 79 427 2440
2022-09-24 12:00 5.38 35 51500 (1993) 0 (1964) 1130 2 3 4 5 19 54 79 427 2440
2022-09-24 11:30 5.37 34 51500 (1993) 0 (1964) 1130 2 3 4 5 19 54 79 427 2440
2022-09-24 11:00 5.39 36 51500 (1993) 0 (1964) 1130 2 3 4 5 19 54 79 427 2440
2022-09-24 10:30 5.39 36 51500 (1993) 0 (1964) 1130 2 3 4 5 19 54 79 427 2440
2022-09-24 10:00 5.35 32 51500 (1993) 0 (1964) 1130 2 3 4 5 19 54 79 427 2440
2022-09-24 09:30 5.39 36 51500 (1993) 0 (1964) 1130 2 3 4 5 19 54 79 427 2440
2022-09-24 09:00 5.39 36 51500 (1993) 0 (1964) 1130 2 3 4 5 19 54 79 427 2440
2022-09-24 08:30 5.40 37 51500 (1993) 0 (1964) 1130 2 3 4 5 19 54 79 427 2440
2022-09-24 08:00 5.40 37 51500 (1993) 0 (1964) 1130 2 3 4 5 19 54 79 427 2440
2022-09-24 07:30 5.40 37 51500 (1993) 0 (1964) 1130 2 3 4 5 19 54 79 427 2440
2022-09-24 07:00 5.41 38 51500 (1993) 0 (1964) 1130 2 3 4 5 19 54 79 427 2440
2022-09-24 06:30 5.41 38 51500 (1993) 0 (1964) 1130 2 3 4 5 19 54 79 427 2440
2022-09-24 06:00 5.41 38 51500 (1993) 0 (1964) 1130 2 3 4 5 19 54 79 427 2440
2022-09-24 05:30 5.41 38 51500 (1993) 0 (1964) 1130 2 3 4 5 19 54 79 427 2440
2022-09-24 05:00 5.41 38 51500 (1993) 0 (1964) 1130 2 3 4 5 19 54 79 427 2440
2022-09-24 04:30 5.41 38 51500 (1993) 0 (1964) 1130 2 3 4 5 19 54 79 427 2440
2022-09-24 04:00 5.41 38 51500 (1993) 0 (1964) 1130 2 3 4 5 19 54 79 427 2440
2022-09-24 03:30 5.41 38 51500 (1993) 0 (1964) 1130 2 3 4 5 19 54 79 427 2440
2022-09-24 03:00 5.41 38 51500 (1993) 0 (1964) 1130 2 3 4 5 19 54 79 427 2440
2022-09-24 02:30 5.41 38 51500 (1993) 0 (1964) 1130 2 3 4 5 19 54 79 427 2440
2022-09-24 02:00 5.41 38 51500 (1993) 0 (1964) 1130 2 3 4 5 19 54 79 427 2440
2022-09-24 01:30 5.41 38 51500 (1993) 0 (1964) 1130 2 3 4 5 19 54 79 427 2440
2022-09-24 01:00 5.41 38 51500 (1993) 0 (1964) 1130 2 3 4 5 19 54 79 427 2440
2022-09-24 00:30 38 51500 (1993) 0 (1964) 1130 2 3 4 5 19 54 79 427 2440
2022-09-24 00:00 5.41 38 51500 (1993) 0 (1964) 1130 2 3 4 5 19 54 79 427 2440
2022-09-23 23:30 5.39 36 72200 (1993) 0 (1964) 1340 2 3 4 6 17 62 79 243 4880
2022-09-23 23:00 5.40 37 72200 (1993) 0 (1964) 1340 2 3 4 6 17 62 79 243 4880
2022-09-23 22:30 5.40 37 72200 (1993) 0 (1964) 1340 2 3 4 6 17 62 79 243 4880
2022-09-23 22:00 5.41 38 72200 (1993) 0 (1964) 1340 2 3 4 6 17 62 79 243 4880
2022-09-23 21:30 5.41 38 72200 (1993) 0 (1964) 1340 2 3 4 6 17 62 79 243 4880
2022-09-23 21:00 5.40 37 72200 (1993) 0 (1964) 1340 2 3 4 6 17 62 79 243 4880
2022-09-23 20:30 5.38 35 72200 (1993) 0 (1964) 1340 2 3 4 6 17 62 79 243 4880
2022-09-23 20:00 5.41 38 72200 (1993) 0 (1964) 1340 2 3 4 6 17 62 79 243 4880
2022-09-23 19:30 5.36 33 72200 (1993) 0 (1964) 1340 2 3 4 6 17 62 79 243 4880
2022-09-23 19:00 5.38 35 72200 (1993) 0 (1964) 1340 2 3 4 6 17 62 79 243 4880
2022-09-23 18:30 5.35 32 72200 (1993) 0 (1964) 1340 2 3 4 6 17 62 79 243 4880
2022-09-23 18:00 5.35 32 72200 (1993) 0 (1964) 1340 2 3 4 6 17 62 79 243 4880
2022-09-23 17:30 5.35 32 72200 (1993) 0 (1964) 1340 2 3 4 6 17 62 79 243 4880
2022-09-23 17:00 5.35 32 72200 (1993) 0 (1964) 1340 2 3 4 6 17 62 79 243 4880
2022-09-23 16:30 5.41 38 72200 (1993) 0 (1964) 1340 2 3 4 6 17 62 79 243 4880
2022-09-23 16:00 5.40 37 72200 (1993) 0 (1964) 1340 2 3 4 6 17 62 79 243 4880
2022-09-23 15:30 5.37 34 72200 (1993) 0 (1964) 1340 2 3 4 6 17 62 79 243 4880
2022-09-23 15:00 5.39 36 72200 (1993) 0 (1964) 1340 2 3 4 6 17 62 79 243 4880
2022-09-23 14:30 5.40 37 72200 (1993) 0 (1964) 1340 2 3 4 6 17 62 79 243 4880
2022-09-23 14:00 5.40 37 72200 (1993) 0 (1964) 1340 2 3 4 6 17 62 79 243 4880
2022-09-23 13:30 5.38 35 72200 (1993) 0 (1964) 1340 2 3 4 6 17 62 79 243 4880
2022-09-23 13:00 5.37 34 72200 (1993) 0 (1964) 1340 2 3 4 6 17 62 79 243 4880
2022-09-23 12:30 5.40 37 72200 (1993) 0 (1964) 1340 2 3 4 6 17 62 79 243 4880
2022-09-23 12:00 5.34 31 72200 (1993) 0 (1964) 1340 2 3 4 6 17 62 79 243 4880
2022-09-23 11:30 5.37 34 72200 (1993) 0 (1964) 1340 2 3 4 6 17 62 79 243 4880
2022-09-23 11:00 5.35 32 72200 (1993) 0 (1964) 1340 2 3 4 6 17 62 79 243 4880
2022-09-23 10:30 5.36 33 72200 (1993) 0 (1964) 1340 2 3 4 6 17 62 79 243 4880
2022-09-23 10:00 5.31 29 72200 (1993) 0 (1964) 1340 2 3 4 6 17 62 79 243 4880
2022-09-23 09:30 5.35 32 72200 (1993) 0 (1964) 1340 2 3 4 6 17 62 79 243 4880
2022-09-23 09:00 5.36 33 72200 (1993) 0 (1964) 1340 2 3 4 6 17 62 79 243 4880
2022-09-23 08:30 5.35 32 72200 (1993) 0 (1964) 1340 2 3 4 6 17 62 79 243 4880
2022-09-23 08:00 5.40 37 72200 (1993) 0 (1964) 1340 2 3 4 6 17 62 79 243 4880
2022-09-23 07:30 34 72200 (1993) 0 (1964) 1340 2 3 4 6 17 62 79 243 4880
2022-09-23 07:00 5.36 33 72200 (1993) 0 (1964) 1340 2 3 4 6 17 62 79 243 4880
2022-09-23 06:30 5.35 32 72200 (1993) 0 (1964) 1340 2 3 4 6 17 62 79 243 4880
2022-09-23 06:00 5.40 37 72200 (1993) 0 (1964) 1340 2 3 4 6 17 62 79 243 4880
2022-09-23 05:30 5.37 34 72200 (1993) 0 (1964) 1340 2 3 4 6 17 62 79 243 4880
2022-09-23 05:00 5.35 32 72200 (1993) 0 (1964) 1340 2 3 4 6 17 62 79 243 4880
2022-09-23 04:30 5.36 33 72200 (1993) 0 (1964) 1340 2 3 4 6 17 62 79 243 4880
2022-09-23 04:00 5.34 31 72200 (1993) 0 (1964) 1340 2 3 4 6 17 62 79 243 4880
2022-09-23 03:30 5.34 31 72200 (1993) 0 (1964) 1340 2 3 4 6 17 62 79 243 4880
2022-09-23 03:00 5.40 37 72200 (1993) 0 (1964) 1340 2 3 4 6 17 62 79 243 4880
2022-09-23 02:30 5.40 37 72200 (1993) 0 (1964) 1340 2 3 4 6 17 62 79 243 4880
2022-09-23 02:00 5.40 37 72200 (1993) 0 (1964) 1340 2 3 4 6 17 62 79 243 4880
2022-09-23 01:30 5.40 37 72200 (1993) 0 (1964) 1340 2 3 4 6 17 62 79 243 4880
2022-09-23 01:00 5.40 37 72200 (1993) 0 (1964) 1340 2 3 4 6 17 62 79 243 4880
2022-09-23 00:30 5.40 37 72200 (1993) 0 (1964) 1340 2 3 4 6 17 62 79 243 4880
2022-09-23 00:00 5.40 37 72200 (1993) 0 (1964) 1340 2 3 4 6 17 62 79 243 4880
2022-09-22 23:30 5.40 37 12000 (1993) 0 (1964) 433 2 3 4 5 20 67 86 233 1370
2022-09-22 23:00 5.40 37 12000 (1993) 0 (1964) 433 2 3 4 5 20 67 86 233 1370
2022-09-22 22:30 5.40 37 12000 (1993) 0 (1964) 433 2 3 4 5 20 67 86 233 1370
2022-09-22 22:00 5.40 37 12000 (1993) 0 (1964) 433 2 3 4 5 20 67 86 233 1370
2022-09-22 21:30 5.40 37 12000 (1993) 0 (1964) 433 2 3 4 5 20 67 86 233 1370
2022-09-22 21:00 5.40 37 12000 (1993) 0 (1964) 433 2 3 4 5 20 67 86 233 1370
2022-09-22 20:30 5.40 37 12000 (1993) 0 (1964) 433 2 3 4 5 20 67 86 233 1370
2022-09-22 20:00 5.40 37 12000 (1993) 0 (1964) 433 2 3 4 5 20 67 86 233 1370
2022-09-22 19:30 5.40 37 12000 (1993) 0 (1964) 433 2 3 4 5 20 67 86 233 1370
2022-09-22 19:00 5.39 36 12000 (1993) 0 (1964) 433 2 3 4 5 20 67 86 233 1370
2022-09-22 18:30 5.40 37 12000 (1993) 0 (1964) 433 2 3 4 5 20 67 86 233 1370
2022-09-22 18:00 5.40 37 12000 (1993) 0 (1964) 433 2 3 4 5 20 67 86 233 1370
2022-09-22 17:30 5.38 35 12000 (1993) 0 (1964) 433 2 3 4 5 20 67 86 233 1370
2022-09-22 17:00 5.38 35 12000 (1993) 0 (1964) 433 2 3 4 5 20 67 86 233 1370
2022-09-22 16:30 5.38 35 12000 (1993) 0 (1964) 433 2 3 4 5 20 67 86 233 1370
2022-09-22 16:00 5.40 37 12000 (1993) 0 (1964) 433 2 3 4 5 20 67 86 233 1370
2022-09-22 15:30 5.38 35 12000 (1993) 0 (1964) 433 2 3 4 5 20 67 86 233 1370
2022-09-22 15:00 5.36 33 12000 (1993) 0 (1964) 433 2 3 4 5 20 67 86 233 1370
2022-09-22 14:30 5.32 29 12000 (1993) 0 (1964) 433 2 3 4 5 20 67 86 233 1370
2022-09-22 14:00 5.34 31 12000 (1993) 0 (1964) 433 2 3 4 5 20 67 86 233 1370
2022-09-22 13:30 5.35 32 12000 (1993) 0 (1964) 433 2 3 4 5 20 67 86 233 1370
2022-09-22 13:00 5.35 32 12000 (1993) 0 (1964) 433 2 3 4 5 20 67 86 233 1370
2022-09-22 12:30 5.39 36 12000 (1993) 0 (1964) 433 2 3 4 5 20 67 86 233 1370
2022-09-22 12:00 5.38 35 12000 (1993) 0 (1964) 433 2 3 4 5 20 67 86 233 1370
2022-09-22 11:30 5.35 32 12000 (1993) 0 (1964) 433 2 3 4 5 20 67 86 233 1370
2022-09-22 11:00 5.34 31 12000 (1993) 0 (1964) 433 2 3 4 5 20 67 86 233 1370
2022-09-22 10:30 5.40 37 12000 (1993) 0 (1964) 433 2 3 4 5 20 67 86 233 1370
2022-09-22 10:00 5.36 33 12000 (1993) 0 (1964) 433 2 3 4 5 20 67 86 233 1370
2022-09-22 09:30 5.37 34 12000 (1993) 0 (1964) 433 2 3 4 5 20 67 86 233 1370
2022-09-22 09:00 5.40 37 12000 (1993) 0 (1964) 433 2 3 4 5 20 67 86 233 1370
2022-09-22 08:30 5.41 38 12000 (1993) 0 (1964) 433 2 3 4 5 20 67 86 233 1370
2022-09-22 08:00 5.41 38 12000 (1993) 0 (1964) 433 2 3 4 5 20 67 86 233 1370
2022-09-22 07:30 5.41 38 12000 (1993) 0 (1964) 433 2 3 4 5 20 67 86 233 1370
2022-09-22 07:00 5.41 38 12000 (1993) 0 (1964) 433 2 3 4 5 20 67 86 233 1370
2022-09-22 06:30 5.41 38 12000 (1993) 0 (1964) 433 2 3 4 5 20 67 86 233 1370
2022-09-22 06:00 5.42 39 12000 (1993) 0 (1964) 433 2 3 4 5 20 67 86 233 1370
2022-09-22 05:30 5.41 38 12000 (1993) 0 (1964) 433 2 3 4 5 20 67 86 233 1370
2022-09-22 05:00 5.42 39 12000 (1993) 0 (1964) 433 2 3 4 5 20 67 86 233 1370
2022-09-22 04:30 5.42 39 12000 (1993) 0 (1964) 433 2 3 4 5 20 67 86 233 1370
2022-09-22 04:00 5.42 39 12000 (1993) 0 (1964) 433 2 3 4 5 20 67 86 233 1370
2022-09-22 03:30 5.42 39 12000 (1993) 0 (1964) 433 2 3 4 5 20 67 86 233 1370
2022-09-22 03:00 5.42 39 12000 (1993) 0 (1964) 433 2 3 4 5 20 67 86 233 1370
2022-09-22 02:30 5.42 39 12000 (1993) 0 (1964) 433 2 3 4 5 20 67 86 233 1370
2022-09-22 02:00 5.42 39 12000 (1993) 0 (1964) 433 2 3 4 5 20 67 86 233 1370
2022-09-22 01:30 5.42 39 12000 (1993) 0 (1964) 433 2 3 4 5 20 67 86 233 1370
2022-09-22 01:00 5.42 39 12000 (1993) 0 (1964) 433 2 3 4 5 20 67 86 233 1370
2022-09-22 00:30 5.42 39 12000 (1993) 0 (1964) 433 2 3 4 5 20 67 86 233 1370
2022-09-22 00:00 5.42 39 12000 (1993) 0 (1964) 433 2 3 4 5 20 67 86 233 1370
2022-09-21 23:30 5.42 39 5260 (2010) 0 (1964) 179 2 3 4 7 17 81 103 271 794
2022-09-21 23:00 5.42 39 5260 (2010) 0 (1964) 179 2 3 4 7 17 81 103 271 794
2022-09-21 22:30 5.42 39 5260 (2010) 0 (1964) 179 2 3 4 7 17 81 103 271 794
2022-09-21 22:00 5.42 39 5260 (2010) 0 (1964) 179 2 3 4 7 17 81 103 271 794
2022-09-21 21:30 5.42 39 5260 (2010) 0 (1964) 179 2 3 4 7 17 81 103 271 794
2022-09-21 21:00 5.42 39 5260 (2010) 0 (1964) 179 2 3 4 7 17 81 103 271 794
2022-09-21 20:30 5.42 39 5260 (2010) 0 (1964) 179 2 3 4 7 17 81 103 271 794
2022-09-21 20:00 5.41 38 5260 (2010) 0 (1964) 179 2 3 4 7 17 81 103 271 794
2022-09-21 19:30 5.38 35 5260 (2010) 0 (1964) 179 2 3 4 7 17 81 103 271 794
2022-09-21 19:00 5.37 34 5260 (2010) 0 (1964) 179 2 3 4 7 17 81 103 271 794
2022-09-21 18:30 5.37 34 5260 (2010) 0 (1964) 179 2 3 4 7 17 81 103 271 794
2022-09-21 18:00 5.42 39 5260 (2010) 0 (1964) 179 2 3 4 7 17 81 103 271 794
2022-09-21 17:30 5.42 39 5260 (2010) 0 (1964) 179 2 3 4 7 17 81 103 271 794
2022-09-21 17:00 5.42 39 5260 (2010) 0 (1964) 179 2 3 4 7 17 81 103 271 794
2022-09-21 16:30 5.38 35 5260 (2010) 0 (1964) 179 2 3 4 7 17 81 103 271 794
2022-09-21 16:00 5.41 38 5260 (2010) 0 (1964) 179 2 3 4 7 17 81 103 271 794
2022-09-21 15:30 5.42 39 5260 (2010) 0 (1964) 179 2 3 4 7 17 81 103 271 794
2022-09-21 15:00 5.42 39 5260 (2010) 0 (1964) 179 2 3 4 7 17 81 103 271 794
2022-09-21 14:30 5.42 39 5260 (2010) 0 (1964) 179 2 3 4 7 17 81 103 271 794
2022-09-21 14:00 5.36 33 5260 (2010) 0 (1964) 179 2 3 4 7 17 81 103 271 794
2022-09-21 13:30 5.40 37 5260 (2010) 0 (1964) 179 2 3 4 7 17 81 103 271 794
2022-09-21 13:00 5.42 39 5260 (2010) 0 (1964) 179 2 3 4 7 17 81 103 271 794
2022-09-21 12:30 5.43 40 5260 (2010) 0 (1964) 179 2 3 4 7 17 81 103 271 794
2022-09-21 12:00 5.43 40 5260 (2010) 0 (1964) 179 2 3 4 7 17 81 103 271 794
2022-09-21 11:30 5.43 40 5260 (2010) 0 (1964) 179 2 3 4 7 17 81 103 271 794
2022-09-21 11:00 5.42 39 5260 (2010) 0 (1964) 179 2 3 4 7 17 81 103 271 794
2022-09-21 10:30 5.43 40 5260 (2010) 0 (1964) 179 2 3 4 7 17 81 103 271 794
2022-09-21 10:00 5.42 39 5260 (2010) 0 (1964) 179 2 3 4 7 17 81 103 271 794
2022-09-21 09:30 5.43 40 5260 (2010) 0 (1964) 179 2 3 4 7 17 81 103 271 794
2022-09-21 09:00 5.43 40 5260 (2010) 0 (1964) 179 2 3 4 7 17 81 103 271 794
2022-09-21 08:30 5.43 40 5260 (2010) 0 (1964) 179 2 3 4 7 17 81 103 271 794
2022-09-21 08:00 5.43 40 5260 (2010) 0 (1964) 179 2 3 4 7 17 81 103 271 794
2022-09-21 07:30 5.44 41 5260 (2010) 0 (1964) 179 2 3 4 7 17 81 103 271 794
2022-09-21 07:00 5.43 40 5260 (2010) 0 (1964) 179 2 3 4 7 17 81 103 271 794
2022-09-21 06:30 5.43 40 5260 (2010) 0 (1964) 179 2 3 4 7 17 81 103 271 794
2022-09-21 06:00 5.43 40 5260 (2010) 0 (1964) 179 2 3 4 7 17 81 103 271 794
2022-09-21 05:30 5.43 40 5260 (2010) 0 (1964) 179 2 3 4 7 17 81 103 271 794
2022-09-21 05:00 5.43 40 5260 (2010) 0 (1964) 179 2 3 4 7 17 81 103 271 794
2022-09-21 04:30 5.43 40 5260 (2010) 0 (1964) 179 2 3 4 7 17 81 103 271 794
2022-09-21 04:00 5.43 40 5260 (2010) 0 (1964) 179 2 3 4 7 17 81 103 271 794
2022-09-21 03:30 5.43 40 5260 (2010) 0 (1964) 179 2 3 4 7 17 81 103 271 794
2022-09-21 03:00 5.43 40 5260 (2010) 0 (1964) 179 2 3 4 7 17 81 103 271 794
2022-09-21 02:30 5.43 40 5260 (2010) 0 (1964) 179 2 3 4 7 17 81 103 271 794
2022-09-21 02:00 5.43 40 5260 (2010) 0 (1964) 179 2 3 4 7 17 81 103 271 794
2022-09-21 01:30 5.43 40 5260 (2010) 0 (1964) 179 2 3 4 7 17 81 103 271 794
2022-09-21 01:00 5.43 40 5260 (2010) 0 (1964) 179 2 3 4 7 17 81 103 271 794
2022-09-21 00:30 5.43 40 5260 (2010) 0 (1964) 179 2 3 4 7 17 81 103 271 794
2022-09-21 00:00 5.43 40 5260 (2010) 0 (1964) 179 2 3 4 7 17 81 103 271 794
2022-09-20 23:30 5.43 40 20000 (2010) 0 (1964) 441 2 3 4 6 18 68 102 281 721
2022-09-20 23:00 5.43 40 20000 (2010) 0 (1964) 441 2 3 4 6 18 68 102 281 721
2022-09-20 22:30 5.43 40 20000 (2010) 0 (1964) 441 2 3 4 6 18 68 102 281 721
2022-09-20 22:00 5.43 40 20000 (2010) 0 (1964) 441 2 3 4 6 18 68 102 281 721
2022-09-20 21:30 5.43 40 20000 (2010) 0 (1964) 441 2 3 4 6 18 68 102 281 721
2022-09-20 21:00 5.43 40 20000 (2010) 0 (1964) 441 2 3 4 6 18 68 102 281 721
2022-09-20 20:30 5.43 40 20000 (2010) 0 (1964) 441 2 3 4 6 18 68 102 281 721
2022-09-20 20:00 5.43 40 20000 (2010) 0 (1964) 441 2 3 4 6 18 68 102 281 721
2022-09-20 19:30 5.44 41 20000 (2010) 0 (1964) 441 2 3 4 6 18 68 102 281 721
2022-09-20 19:00 5.44 41 20000 (2010) 0 (1964) 441 2 3 4 6 18 68 102 281 721
2022-09-20 18:30 5.43 40 20000 (2010) 0 (1964) 441 2 3 4 6 18 68 102 281 721
2022-09-20 18:00 5.44 41 20000 (2010) 0 (1964) 441 2 3 4 6 18 68 102 281 721
2022-09-20 17:30 5.44 41 20000 (2010) 0 (1964) 441 2 3 4 6 18 68 102 281 721
2022-09-20 17:00 5.44 41 20000 (2010) 0 (1964) 441 2 3 4 6 18 68 102 281 721
2022-09-20 16:30 5.44 41 20000 (2010) 0 (1964) 441 2 3 4 6 18 68 102 281 721
2022-09-20 16:00 5.38 35 20000 (2010) 0 (1964) 441 2 3 4 6 18 68 102 281 721
2022-09-20 15:30 5.41 38 20000 (2010) 0 (1964) 441 2 3 4 6 18 68 102 281 721
2022-09-20 15:00 5.39 36 20000 (2010) 0 (1964) 441 2 3 4 6 18 68 102 281 721
2022-09-20 14:30 5.41 38 20000 (2010) 0 (1964) 441 2 3 4 6 18 68 102 281 721
2022-09-20 14:00 5.44 41 20000 (2010) 0 (1964) 441 2 3 4 6 18 68 102 281 721
2022-09-20 13:30 5.45 42 20000 (2010) 0 (1964) 441 2 3 4 6 18 68 102 281 721
2022-09-20 13:00 5.44 41 20000 (2010) 0 (1964) 441 2 3 4 6 18 68 102 281 721
2022-09-20 12:30 5.42 39 20000 (2010) 0 (1964) 441 2 3 4 6 18 68 102 281 721
2022-09-20 12:00 5.41 38 20000 (2010) 0 (1964) 441 2 3 4 6 18 68 102 281 721
2022-09-20 11:30 5.43 40 20000 (2010) 0 (1964) 441 2 3 4 6 18 68 102 281 721
2022-09-20 11:00 5.39 36 20000 (2010) 0 (1964) 441 2 3 4 6 18 68 102 281 721
2022-09-20 10:30 5.40 37 20000 (2010) 0 (1964) 441 2 3 4 6 18 68 102 281 721
2022-09-20 10:00 5.44 41 20000 (2010) 0 (1964) 441 2 3 4 6 18 68 102 281 721
2022-09-20 09:30 5.44 41 20000 (2010) 0 (1964) 441 2 3 4 6 18 68 102 281 721
2022-09-20 09:00 5.44 41 20000 (2010) 0 (1964) 441 2 3 4 6 18 68 102 281 721
2022-09-20 08:30 5.44 41 20000 (2010) 0 (1964) 441 2 3 4 6 18 68 102 281 721
2022-09-20 08:00 5.45 42 20000 (2010) 0 (1964) 441 2 3 4 6 18 68 102 281 721
2022-09-20 07:30 5.44 41 20000 (2010) 0 (1964) 441 2 3 4 6 18 68 102 281 721
2022-09-20 07:00 5.44 41 20000 (2010) 0 (1964) 441 2 3 4 6 18 68 102 281 721
2022-09-20 06:30 5.45 42 20000 (2010) 0 (1964) 441 2 3 4 6 18 68 102 281 721
2022-09-20 06:00 5.44 41 20000 (2010) 0 (1964) 441 2 3 4 6 18 68 102 281 721
2022-09-20 05:30 5.45 42 20000 (2010) 0 (1964) 441 2 3 4 6 18 68 102 281 721
2022-09-20 05:00 5.45 42 20000 (2010) 0 (1964) 441 2 3 4 6 18 68 102 281 721
2022-09-20 04:30 5.45 42 20000 (2010) 0 (1964) 441 2 3 4 6 18 68 102 281 721
2022-09-20 04:00 5.45 42 20000 (2010) 0 (1964) 441 2 3 4 6 18 68 102 281 721
2022-09-20 03:30 5.45 42 20000 (2010) 0 (1964) 441 2 3 4 6 18 68 102 281 721
2022-09-20 03:00 5.45 42 20000 (2010) 0 (1964) 441 2 3 4 6 18 68 102 281 721
2022-09-20 02:30 5.45 42 20000 (2010) 0 (1964) 441 2 3 4 6 18 68 102 281 721
2022-09-20 02:00 5.45 42 20000 (2010) 0 (1964) 441 2 3 4 6 18 68 102 281 721
2022-09-20 01:30 5.45 42 20000 (2010) 0 (1964) 441 2 3 4 6 18 68 102 281 721
2022-09-20 01:00 5.45 42 20000 (2010) 0 (1964) 441 2 3 4 6 18 68 102 281 721
2022-09-20 00:30 5.45 42 20000 (2010) 0 (1964) 441 2 3 4 6 18 68 102 281 721
2022-09-20 00:00 5.45 42 20000 (2010) 0 (1964) 441 2 3 4 6 18 68 102 281 721
2022-09-19 23:30 5.45 42 5960 (2010) 0 (1954) 192 2 3 5 5 19 63 134 473 1100
2022-09-19 23:00 5.45 42 5960 (2010) 0 (1954) 192 2 3 5 5 19 63 134 473 1100
2022-09-19 22:30 5.45 42 5960 (2010) 0 (1954) 192 2 3 5 5 19 63 134 473 1100
2022-09-19 22:00 5.45 42 5960 (2010) 0 (1954) 192 2 3 5 5 19 63 134 473 1100
2022-09-19 21:30 5.45 42 5960 (2010) 0 (1954) 192 2 3 5 5 19 63 134 473 1100
2022-09-19 21:00 5.44 41 5960 (2010) 0 (1954) 192 2 3 5 5 19 63 134 473 1100
2022-09-19 20:30 5.45 42 5960 (2010) 0 (1954) 192 2 3 5 5 19 63 134 473 1100
2022-09-19 20:00 5.44 41 5960 (2010) 0 (1954) 192 2 3 5 5 19 63 134 473 1100
2022-09-19 19:30 5.45 42 5960 (2010) 0 (1954) 192 2 3 5 5 19 63 134 473 1100
2022-09-19 19:00 5.44 41 5960 (2010) 0 (1954) 192 2 3 5 5 19 63 134 473 1100
2022-09-19 18:30 5.44 41 5960 (2010) 0 (1954) 192 2 3 5 5 19 63 134 473 1100
2022-09-19 18:00 5.44 41 5960 (2010) 0 (1954) 192 2 3 5 5 19 63 134 473 1100
2022-09-19 17:30 5.44 41 5960 (2010) 0 (1954) 192 2 3 5 5 19 63 134 473 1100
2022-09-19 17:00 5.45 42 5960 (2010) 0 (1954) 192 2 3 5 5 19 63 134 473 1100
2022-09-19 16:30 5.44 41 5960 (2010) 0 (1954) 192 2 3 5 5 19 63 134 473 1100
2022-09-19 16:00 5.44 41 5960 (2010) 0 (1954) 192 2 3 5 5 19 63 134 473 1100
2022-09-19 15:30 5.44 41 5960 (2010) 0 (1954) 192 2 3 5 5 19 63 134 473 1100
2022-09-19 15:00 5.45 42 5960 (2010) 0 (1954) 192 2 3 5 5 19 63 134 473 1100
2022-09-19 14:30 5.40 37 5960 (2010) 0 (1954) 192 2 3 5 5 19 63 134 473 1100
2022-09-19 14:00 5.42 39 5960 (2010) 0 (1954) 192 2 3 5 5 19 63 134 473 1100
2022-09-19 13:30 5.41 38 5960 (2010) 0 (1954) 192 2 3 5 5 19 63 134 473 1100
2022-09-19 13:00 5.40 37 5960 (2010) 0 (1954) 192 2 3 5 5 19 63 134 473 1100
2022-09-19 12:30 5.39 36 5960 (2010) 0 (1954) 192 2 3 5 5 19 63 134 473 1100
2022-09-19 12:00 5.41 38 5960 (2010) 0 (1954) 192 2 3 5 5 19 63 134 473 1100
2022-09-19 11:30 5.44 41 5960 (2010) 0 (1954) 192 2 3 5 5 19 63 134 473 1100
2022-09-19 11:00 5.45 42 5960 (2010) 0 (1954) 192 2 3 5 5 19 63 134 473 1100
2022-09-19 10:30 5.45 42 5960 (2010) 0 (1954) 192 2 3 5 5 19 63 134 473 1100
2022-09-19 10:00 5.44 41 5960 (2010) 0 (1954) 192 2 3 5 5 19 63 134 473 1100
2022-09-19 09:30 5.44 41 5960 (2010) 0 (1954) 192 2 3 5 5 19 63 134 473 1100
2022-09-19 09:00 5.44 41 5960 (2010) 0 (1954) 192 2 3 5 5 19 63 134 473 1100
2022-09-19 08:30 5.44 41 5960 (2010) 0 (1954) 192 2 3 5 5 19 63 134 473 1100
2022-09-19 08:00 5.45 42 5960 (2010) 0 (1954) 192 2 3 5 5 19 63 134 473 1100
2022-09-19 07:30 5.45 42 5960 (2010) 0 (1954) 192 2 3 5 5 19 63 134 473 1100
2022-09-19 07:00 5.45 42 5960 (2010) 0 (1954) 192 2 3 5 5 19 63 134 473 1100
2022-09-19 06:30 5.45 42 5960 (2010) 0 (1954) 192 2 3 5 5 19 63 134 473 1100
2022-09-19 06:00 5.45 42 5960 (2010) 0 (1954) 192 2 3 5 5 19 63 134 473 1100
2022-09-19 05:30 5.45 42 5960 (2010) 0 (1954) 192 2 3 5 5 19 63 134 473 1100
2022-09-19 05:00 5.45 42 5960 (2010) 0 (1954) 192 2 3 5 5 19 63 134 473 1100
2022-09-19 04:30 5.45 42 5960 (2010) 0 (1954) 192 2 3 5 5 19 63 134 473 1100
2022-09-19 04:00 5.45 42 5960 (2010) 0 (1954) 192 2 3 5 5 19 63 134 473 1100
2022-09-19 03:30 5.45 42 5960 (2010) 0 (1954) 192 2 3 5 5 19 63 134 473 1100
2022-09-19 03:00 5.44 41 5960 (2010) 0 (1954) 192 2 3 5 5 19 63 134 473 1100
2022-09-19 02:30 5.45 42 5960 (2010) 0 (1954) 192 2 3 5 5 19 63 134 473 1100
2022-09-19 02:00 5.45 42 5960 (2010) 0 (1954) 192 2 3 5 5 19 63 134 473 1100
2022-09-19 01:30 5.45 42 5960 (2010) 0 (1954) 192 2 3 5 5 19 63 134 473 1100
2022-09-19 01:00 5.45 42 5960 (2010) 0 (1954) 192 2 3 5 5 19 63 134 473 1100
2022-09-19 00:30 5.43 40 5960 (2010) 0 (1954) 192 2 3 5 5 19 63 134 473 1100
2022-09-19 00:00 5.44 41 5960 (2010) 0 (1954) 192 2 3 5 5 19 63 134 473 1100
2022-09-18 23:30 5.45 42 8400 (1982) 0 (1954) 261 2 3 5 5 18 65 128 402 1380
2022-09-18 23:00 5.45 42 8400 (1982) 0 (1954) 261 2 3 5 5 18 65 128 402 1380
2022-09-18 22:30 5.45 42 8400 (1982) 0 (1954) 261 2 3 5 5 18 65 128 402 1380
2022-09-18 22:00 5.45 42 8400 (1982) 0 (1954) 261 2 3 5 5 18 65 128 402 1380
2022-09-18 21:30 5.45 42 8400 (1982) 0 (1954) 261 2 3 5 5 18 65 128 402 1380
2022-09-18 21:00 5.45 42 8400 (1982) 0 (1954) 261 2 3 5 5 18 65 128 402 1380
2022-09-18 20:30 5.45 42 8400 (1982) 0 (1954) 261 2 3 5 5 18 65 128 402 1380
2022-09-18 20:00 5.46 43 8400 (1982) 0 (1954) 261 2 3 5 5 18 65 128 402 1380
2022-09-18 19:30 5.45 42 8400 (1982) 0 (1954) 261 2 3 5 5 18 65 128 402 1380
2022-09-18 19:00 5.46 43 8400 (1982) 0 (1954) 261 2 3 5 5 18 65 128 402 1380
2022-09-18 18:30 5.46 43 8400 (1982) 0 (1954) 261 2 3 5 5 18 65 128 402 1380
2022-09-18 18:00 5.46 43 8400 (1982) 0 (1954) 261 2 3 5 5 18 65 128 402 1380
2022-09-18 17:30 5.46 43 8400 (1982) 0 (1954) 261 2 3 5 5 18 65 128 402 1380
2022-09-18 17:00 5.46 43 8400 (1982) 0 (1954) 261 2 3 5 5 18 65 128 402 1380
2022-09-18 16:30 5.46 43 8400 (1982) 0 (1954) 261 2 3 5 5 18 65 128 402 1380
2022-09-18 16:00 5.46 43 8400 (1982) 0 (1954) 261 2 3 5 5 18 65 128 402 1380
2022-09-18 15:30 5.42 39 8400 (1982) 0 (1954) 261 2 3 5 5 18 65 128 402 1380
2022-09-18 15:00 5.42 39 8400 (1982) 0 (1954) 261 2 3 5 5 18 65 128 402 1380
2022-09-18 14:30 5.46 43 8400 (1982) 0 (1954) 261 2 3 5 5 18 65 128 402 1380
2022-09-18 14:00 5.45 42 8400 (1982) 0 (1954) 261 2 3 5 5 18 65 128 402 1380
2022-09-18 13:30 5.42 39 8400 (1982) 0 (1954) 261 2 3 5 5 18 65 128 402 1380
2022-09-18 13:00 5.44 41 8400 (1982) 0 (1954) 261 2 3 5 5 18 65 128 402 1380
2022-09-18 12:30 5.43 40 8400 (1982) 0 (1954) 261 2 3 5 5 18 65 128 402 1380
2022-09-18 12:00 5.40 37 8400 (1982) 0 (1954) 261 2 3 5 5 18 65 128 402 1380
2022-09-18 11:30 5.45 42 8400 (1982) 0 (1954) 261 2 3 5 5 18 65 128 402 1380
2022-09-18 11:00 5.42 39 8400 (1982) 0 (1954) 261 2 3 5 5 18 65 128 402 1380
2022-09-18 10:30 5.46 43 8400 (1982) 0 (1954) 261 2 3 5 5 18 65 128 402 1380
2022-09-18 10:00 5.46 43 8400 (1982) 0 (1954) 261 2 3 5 5 18 65 128 402 1380
2022-09-18 09:30 5.47 45 8400 (1982) 0 (1954) 261 2 3 5 5 18 65 128 402 1380
2022-09-18 09:00 5.46 43 8400 (1982) 0 (1954) 261 2 3 5 5 18 65 128 402 1380
2022-09-18 08:30 5.43 40 8400 (1982) 0 (1954) 261 2 3 5 5 18 65 128 402 1380
2022-09-18 08:00 5.44 41 8400 (1982) 0 (1954) 261 2 3 5 5 18 65 128 402 1380
2022-09-18 07:30 5.43 40 8400 (1982) 0 (1954) 261 2 3 5 5 18 65 128 402 1380
2022-09-18 07:00 5.38 35 8400 (1982) 0 (1954) 261 2 3 5 5 18 65 128 402 1380
2022-09-18 06:30 5.38 35 8400 (1982) 0 (1954) 261 2 3 5 5 18 65 128 402 1380
2022-09-18 06:00 5.44 41 8400 (1982) 0 (1954) 261 2 3 5 5 18 65 128 402 1380
2022-09-18 05:30 5.40 37 8400 (1982) 0 (1954) 261 2 3 5 5 18 65 128 402 1380
2022-09-18 05:00 5.44 41 8400 (1982) 0 (1954) 261 2 3 5 5 18 65 128 402 1380
2022-09-18 04:30 5.44 41 8400 (1982) 0 (1954) 261 2 3 5 5 18 65 128 402 1380
2022-09-18 04:00 5.44 41 8400 (1982) 0 (1954) 261 2 3 5 5 18 65 128 402 1380
2022-09-18 03:30 5.44 41 8400 (1982) 0 (1954) 261 2 3 5 5 18 65 128 402 1380
2022-09-18 03:00 5.44 41 8400 (1982) 0 (1954) 261 2 3 5 5 18 65 128 402 1380
2022-09-18 02:30 5.44 41 8400 (1982) 0 (1954) 261 2 3 5 5 18 65 128 402 1380
2022-09-18 02:00 5.44 41 8400 (1982) 0 (1954) 261 2 3 5 5 18 65 128 402 1380
2022-09-18 01:30 5.43 40 8400 (1982) 0 (1954) 261 2 3 5 5 18 65 128 402 1380
2022-09-18 01:00 5.43 40 8400 (1982) 0 (1954) 261 2 3 5 5 18 65 128 402 1380
2022-09-18 00:30 5.43 40 8400 (1982) 0 (1954) 261 2 3 5 5 18 65 128 402 1380
2022-09-18 00:00 5.43 40 8400 (1982) 0 (1954) 261 2 3 5 5 18 65 128 402 1380

A total of 379 rows are displayed for years 1922 through 2021.